Time;durP1;ratioP1;P1;durP2;ratioP2;P2;SDS_P1;SDS_P2;PMS_P1;PMS_P2;Temp;Humidity;BMP_temperature;BMP_pressure;BME280_temperature;BME280_humidity;BME280_pressure;Samples;Min_cycle;Max_cycle;Signal;HPM_P1;HPM_P2
2022/11/09 00:01:29;;;;;;;;;;;19.60;71.70;;;;;;4494144;31;19970;-72
2022/11/09 00:04:02;;;;;;;;;;;19.70;71.80;;;;;;4479732;31;20136;-72
2022/11/09 00:06:28;;;;;;;;;;;19.60;71.70;;;;;;4494001;31;20107;-72
2022/11/09 00:08:54;;;;;;;;;;;19.60;71.70;;;;;;4493067;31;19980;-72
2022/11/09 00:11:20;;;;;;;;;;;19.60;71.80;;;;;;4493729;31;20176;-72
2022/11/09 00:13:46;;;;;;;;;;;19.60;71.70;;;;;;4493943;31;19989;-72
2022/11/09 00:16:18;;;;;;;;;;;19.60;71.80;;;;;;4493494;31;19981;-72
2022/11/09 00:18:47;;;;;;;;;;;19.60;71.70;;;;;;4479735;31;20406;-72
2022/11/09 00:21:22;;;;;;;;;;;19.60;71.80;;;;;;4493715;31;19985;-72
2022/11/09 00:23:48;;;;;;;;;;;19.60;71.80;;;;;;4493984;31;19988;-72
2022/11/09 00:26:16;;;;;;;;;;;19.60;71.80;;;;;;4493705;31;20058;-72
2022/11/09 00:28:42;;;;;;;;;;;19.60;71.80;;;;;;4493637;31;19981;-72
2022/11/09 00:31:09;;;;;;;;;;;19.60;71.80;;;;;;4493502;31;19973;-72
2022/11/09 00:33:35;;;;;;;;;;;19.60;71.70;;;;;;4493676;31;19985;-72
2022/11/09 00:36:09;;;;;;;;;;;19.60;71.80;;;;;;4493652;31;20425;-72
2022/11/09 00:38:35;;;;;;;;;;;19.60;71.90;;;;;;4493661;31;20501;-72
2022/11/09 00:41:01;;;;;;;;;;;19.50;71.80;;;;;;4479320;31;20009;-72
2022/11/09 00:43:27;;;;;;;;;;;19.50;71.80;;;;;;4493545;31;19977;-72
2022/11/09 00:45:52;;;;;;;;;;;19.50;71.80;;;;;;4493228;31;19984;-72
2022/11/09 00:48:18;;;;;;;;;;;19.50;71.80;;;;;;4493485;31;20419;-72
2022/11/09 00:50:48;;;;;;;;;;;19.50;71.80;;;;;;4493357;31;20418;-72
2022/11/09 00:53:13;;;;;;;;;;;19.50;71.80;;;;;;4493163;31;20412;-72
2022/11/09 00:55:39;;;;;;;;;;;19.50;71.80;;;;;;4493340;31;19973;-72
2022/11/09 00:58:04;;;;;;;;;;;19.50;71.80;;;;;;4493255;31;20516;-72
2022/11/09 01:00:31;;;;;;;;;;;19.50;71.80;;;;;;4478848;31;20034;-71
2022/11/09 01:02:57;;;;;;;;;;;19.50;71.80;;;;;;4493163;31;19974;-72
2022/11/09 01:05:22;;;;;;;;;;;19.50;71.90;;;;;;4492881;31;19976;-72
2022/11/09 01:07:48;;;;;;;;;;;19.50;71.80;;;;;;4493083;31;19965;-72
2022/11/09 01:10:14;;;;;;;;;;;19.40;71.70;;;;;;4478902;31;20047;-72
2022/11/09 01:12:39;;;;;;;;;;;19.40;71.80;;;;;;4493157;31;20035;-72
2022/11/09 01:15:05;;;;;;;;;;;19.40;71.70;;;;;;4493049;31;19984;-72
2022/11/09 01:17:31;;;;;;;;;;;19.40;71.80;;;;;;4493190;31;20474;-72
2022/11/09 01:19:56;;;;;;;;;;;19.40;71.80;;;;;;4492871;31;19965;-72
2022/11/09 01:22:22;;;;;;;;;;;19.40;71.80;;;;;;4493001;31;20381;-72
2022/11/09 01:24:48;;;;;;;;;;;19.40;71.80;;;;;;4493091;31;20288;-72
2022/11/09 01:27:13;;;;;;;;;;;19.40;71.80;;;;;;4492925;31;20092;-72
2022/11/09 01:29:39;;;;;;;;;;;19.40;71.80;;;;;;4478812;31;19979;-72
2022/11/09 01:32:05;;;;;;;;;;;19.40;71.80;;;;;;4492666;31;20032;-72
2022/11/09 01:34:30;;;;;;;;;;;19.40;71.80;;;;;;4492586;31;20063;-72
2022/11/09 01:36:56;;;;;;;;;;;19.40;71.80;;;;;;4492593;31;20097;-72
2022/11/09 01:39:22;;;;;;;;;;;19.30;71.70;;;;;;4478380;31;20104;-72
2022/11/09 01:41:47;;;;;;;;;;;19.30;71.80;;;;;;4492880;31;20111;-72
2022/11/09 01:44:15;;;;;;;;;;;19.40;71.80;;;;;;4493300;31;20008;-72
2022/11/09 01:46:43;;;;;;;;;;;19.30;71.80;;;;;;4492676;31;20017;-72
2022/11/09 01:49:27;;;;;;;;;;;19.30;71.80;;;;;;4492442;31;20020;-72
2022/11/09 01:51:57;;;;;;;;;;;19.30;71.70;;;;;;4492564;32;20331;-73
2022/11/09 01:54:26;;;;;;;;;;;19.30;71.70;;;;;;4492448;32;19982;-72
2022/11/09 01:56:53;;;;;;;;;;;19.30;71.80;;;;;;4492748;32;20111;-72
2022/11/09 01:59:22;;;;;;;;;;;19.30;71.70;;;;;;4492894;32;20468;-72
2022/11/09 02:01:49;;;;;;;;;;;19.30;71.70;;;;;;4492354;32;19978;-71
2022/11/09 02:04:21;;;;;;;;;;;19.30;71.80;;;;;;4492532;32;20580;-71
2022/11/09 02:06:48;;;;;;;;;;;19.30;71.70;;;;;;4492845;32;20057;-72
2022/11/09 02:09:13;;;;;;;;;;;19.30;72.60;;;;;;4492812;32;19973;-72
2022/11/09 02:11:39;;;;;;;;;;;19.30;71.70;;;;;;4492900;32;20028;-72
2022/11/09 02:14:05;;;;;;;;;;;19.30;71.70;;;;;;4492537;32;20016;-72
2022/11/09 02:16:31;;;;;;;;;;;19.30;71.70;;;;;;4492446;32;20021;-71
2022/11/09 02:18:58;;;;;;;;;;;19.20;71.60;;;;;;4492501;32;20302;-72
2022/11/09 02:21:25;;;;;;;;;;;19.20;72.40;;;;;;4492467;32;19970;-71
2022/11/09 02:23:51;;;;;;;;;;;19.20;71.60;;;;;;4492324;32;20009;-72
2022/11/09 02:26:20;;;;;;;;;;;19.20;71.70;;;;;;4478041;32;19982;-72
2022/11/09 02:28:46;;;;;;;;;;;19.20;71.60;;;;;;4492620;32;19988;-71
2022/11/09 02:31:13;;;;;;;;;;;19.20;71.70;;;;;;4493040;31;19981;-72
2022/11/09 02:33:43;;;;;;;;;;;19.20;71.60;;;;;;4495649;31;19989;-72
2022/11/09 02:36:08;;;;;;;;;;;19.20;71.60;;;;;;4495490;31;20377;-72
2022/11/09 02:38:34;;;;;;;;;;;19.20;71.60;;;;;;4495386;31;20027;-72
2022/11/09 02:41:00;;;;;;;;;;;19.20;71.70;;;;;;4495356;31;20391;-72
2022/11/09 02:43:25;;;;;;;;;;;19.20;71.70;;;;;;4495341;31;19977;-72
2022/11/09 02:45:51;;;;;;;;;;;19.20;71.70;;;;;;4495067;31;20124;-72
2022/11/09 02:48:17;;;;;;;;;;;19.20;71.70;;;;;;4495310;31;20307;-72
2022/11/09 02:50:42;;;;;;;;;;;19.20;71.70;;;;;;4495204;31;20298;-71
2022/11/09 02:53:08;;;;;;;;;;;19.20;71.60;;;;;;4495024;31;19974;-71
2022/11/09 02:55:33;;;;;;;;;;;19.20;71.60;;;;;;4480718;31;19981;-72
2022/11/09 02:58:00;;;;;;;;;;;19.20;71.70;;;;;;4495054;31;19966;-71
2022/11/09 03:00:26;;;;;;;;;;;19.20;71.70;;;;;;4495214;31;20457;-72
2022/11/09 03:02:52;;;;;;;;;;;19.20;71.70;;;;;;4495336;31;19985;-72
2022/11/09 03:05:18;;;;;;;;;;;19.20;71.70;;;;;;4495114;31;20303;-72
2022/11/09 03:07:44;;;;;;;;;;;19.20;71.70;;;;;;4480622;31;19977;-71
2022/11/09 03:10:09;;;;;;;;;;;19.20;71.70;;;;;;4494607;31;19962;-72
2022/11/09 03:12:35;;;;;;;;;;;19.20;71.60;;;;;;4480724;31;20115;-72
2022/11/09 03:15:03;;;;;;;;;;;19.20;71.60;;;;;;4494924;31;20012;-72
2022/11/09 03:17:28;;;;;;;;;;;19.10;71.60;;;;;;4494505;31;20043;-72
2022/11/09 03:19:54;;;;;;;;;;;19.10;71.60;;;;;;4495050;31;20429;-72
2022/11/09 03:22:20;;;;;;;;;;;19.10;71.60;;;;;;4494751;31;20046;-72
2022/11/09 03:24:46;;;;;;;;;;;19.10;71.60;;;;;;4494677;31;19981;-72
2022/11/09 03:27:11;;;;;;;;;;;19.10;71.60;;;;;;4494609;31;20411;-71
2022/11/09 03:29:37;;;;;;;;;;;19.20;71.60;;;;;;4494939;31;19973;-71
2022/11/09 03:32:03;;;;;;;;;;;19.10;71.60;;;;;;4494590;31;20024;-72
2022/11/09 03:34:29;;;;;;;;;;;19.10;71.50;;;;;;4494566;31;20013;-72
2022/11/09 03:36:54;;;;;;;;;;;19.10;71.50;;;;;;4494464;31;19974;-72
2022/11/09 03:39:20;;;;;;;;;;;19.10;71.50;;;;;;4494550;31;19984;-72
2022/11/09 03:41:46;;;;;;;;;;;19.10;71.50;;;;;;4493961;31;20385;-72
2022/11/09 03:44:12;;;;;;;;;;;19.10;71.50;;;;;;4494417;31;19984;-72
2022/11/09 03:46:37;;;;;;;;;;;19.10;71.50;;;;;;4494089;31;19972;-72
2022/11/09 03:49:03;;;;;;;;;;;19.10;71.50;;;;;;4494397;31;19969;-72
2022/11/09 03:51:28;;;;;;;;;;;19.10;71.40;;;;;;4494266;31;20460;-72
2022/11/09 03:53:54;;;;;;;;;;;19.10;71.40;;;;;;4483297;31;19981;-72
2022/11/09 03:56:20;;;;;;;;;;;19.10;71.30;;;;;;4494212;31;19985;-72
2022/11/09 03:58:46;;;;;;;;;;;19.10;71.40;;;;;;4494022;31;19966;-72
2022/11/09 04:01:11;;;;;;;;;;;19.10;71.30;;;;;;4493136;31;20086;-72
2022/11/09 04:03:38;;;;;;;;;;;19.10;71.40;;;;;;4494088;31;19978;-72
2022/11/09 04:06:03;;;;;;;;;;;19.10;71.40;;;;;;4493942;31;19966;-72
2022/11/09 04:08:29;;;;;;;;;;;19.10;71.30;;;;;;4493852;31;19982;-71
2022/11/09 04:10:55;;;;;;;;;;;19.10;71.40;;;;;;4493987;31;20288;-72
2022/11/09 04:13:20;;;;;;;;;;;19.10;71.40;;;;;;4493973;31;20005;-71
2022/11/09 04:15:46;;;;;;;;;;;19.00;71.30;;;;;;4492701;31;19962;-76
2022/11/09 04:18:13;;;;;;;;;;;19.00;71.40;;;;;;4493623;31;19974;-75
2022/11/09 04:20:38;;;;;;;;;;;19.00;71.40;;;;;;4493871;31;19981;-75
2022/11/09 04:23:05;;;;;;;;;;;19.00;71.40;;;;;;4493605;31;20000;-76
2022/11/09 04:25:32;;;;;;;;;;;19.00;71.40;;;;;;4493376;31;20127;-76
2022/11/09 04:27:58;;;;;;;;;;;19.00;71.40;;;;;;4493470;31;20017;-76
2022/11/09 04:30:26;;;;;;;;;;;19.00;71.40;;;;;;4493621;31;20058;-75
2022/11/09 04:32:52;;;;;;;;;;;19.00;71.40;;;;;;4493644;31;20080;-76
2022/11/09 04:35:18;;;;;;;;;;;19.00;71.40;;;;;;4493532;31;20111;-75
2022/11/09 04:37:51;;;;;;;;;;;19.00;71.40;;;;;;4493756;31;19969;-75
2022/11/09 04:40:17;;;;;;;;;;;19.00;71.40;;;;;;4493920;31;19992;-76
2022/11/09 04:42:43;;;;;;;;;;;19.00;71.40;;;;;;4492135;31;19962;-75
2022/11/09 04:45:09;;;;;;;;;;;19.00;71.50;;;;;;4493331;31;19970;-76
2022/11/09 04:47:34;;;;;;;;;;;18.90;71.40;;;;;;4493374;31;19977;-75
2022/11/09 04:50:00;;;;;;;;;;;18.90;71.40;;;;;;4493532;31;20295;-76
2022/11/09 04:52:25;;;;;;;;;;;18.90;71.40;;;;;;4493313;31;20055;-76
2022/11/09 04:54:51;;;;;;;;;;;18.90;71.40;;;;;;4492624;31;20016;-75
2022/11/09 04:57:17;;;;;;;;;;;18.90;71.40;;;;;;4492911;31;20469;-75
2022/11/09 04:59:42;;;;;;;;;;;18.90;72.30;;;;;;4493460;31;19966;-75
2022/11/09 05:02:08;;;;;;;;;;;18.90;71.40;;;;;;4493471;31;19962;-77
2022/11/09 05:04:34;;;;;;;;;;;18.90;71.50;;;;;;4493061;31;19981;-76
2022/11/09 05:07:00;;;;;;;;;;;18.90;71.40;;;;;;4493344;31;19985;-76
2022/11/09 05:09:26;;;;;;;;;;;18.90;71.50;;;;;;4493010;31;20379;-76
2022/11/09 05:11:51;;;;;;;;;;;18.90;71.40;;;;;;4479035;31;20415;-76
2022/11/09 05:14:17;;;;;;;;;;;18.90;71.40;;;;;;4492936;31;20099;-76
2022/11/09 05:16:43;;;;;;;;;;;18.90;71.40;;;;;;4492956;31;19973;-77
2022/11/09 05:19:08;;;;;;;;;;;18.90;71.40;;;;;;4492818;31;20401;-76
2022/11/09 05:21:34;;;;;;;;;;;18.90;71.40;;;;;;4492894;31;20358;-76
2022/11/09 05:24:00;;;;;;;;;;;18.80;71.40;;;;;;4478627;31;19969;-76
2022/11/09 05:26:33;;;;;;;;;;;18.90;71.50;;;;;;4492603;31;19973;-76
2022/11/09 05:28:59;;;;;;;;;;;18.90;71.50;;;;;;4492828;31;20330;-76
2022/11/09 05:31:25;;;;;;;;;;;18.80;71.40;;;;;;4492574;31;19978;-75
2022/11/09 05:33:51;;;;;;;;;;;18.80;71.40;;;;;;4492744;31;20016;-75
2022/11/09 05:36:18;;;;;;;;;;;18.80;71.40;;;;;;4478544;31;19992;-75
2022/11/09 05:38:43;;;;;;;;;;;18.90;71.40;;;;;;4478185;31;19990;-76
2022/11/09 05:41:09;;;;;;;;;;;18.80;71.30;;;;;;4492702;31;19965;-75
2022/11/09 05:43:35;;;;;;;;;;;18.80;71.30;;;;;;4492775;31;19962;-75
2022/11/09 05:46:01;;;;;;;;;;;18.80;71.30;;;;;;4492559;31;20412;-79
2022/11/09 05:48:26;;;;;;;;;;;18.80;71.40;;;;;;4478532;31;19976;-78
2022/11/09 05:50:52;;;;;;;;;;;18.80;71.20;;;;;;4492675;31;20386;-78
2022/11/09 05:53:18;;;;;;;;;;;18.80;70.30;;;;;;4492465;32;19984;-77
2022/11/09 05:55:44;;;;;;;;;;;18.80;69.90;;;;;;4478930;32;20087;-76
2022/11/09 05:58:10;;;;;;;;;;;18.80;70.40;;;;;;4478330;32;19973;-77
2022/11/09 06:00:36;;;;;;;;;;;18.80;70.40;;;;;;4492623;32;19962;-76
2022/11/09 06:03:06;;;;;;;;;;;18.80;70.70;;;;;;4465099;32;20500;-76
2022/11/09 06:05:35;;;;;;;;;;;18.80;70.60;;;;;;4493861;31;19982;-76
2022/11/09 06:08:05;;;;;;;;;;;18.80;70.60;;;;;;4495730;31;20025;-76
2022/11/09 06:10:31;;;;;;;;;;;18.80;70.70;;;;;;4495733;31;20407;-72
2022/11/09 06:12:57;;;;;;;;;;;18.80;71.10;;;;;;4495703;31;20379;-76
2022/11/09 06:15:23;;;;;;;;;;;18.80;71.10;;;;;;4495602;31;19961;-75
2022/11/09 06:17:52;;;;;;;;;;;18.80;71.30;;;;;;4481050;31;19998;-73
2022/11/09 06:20:18;;;;;;;;;;;18.80;71.30;;;;;;4495843;31;19969;-72
2022/11/09 06:22:43;;;;;;;;;;;18.80;71.40;;;;;;4495721;31;20102;-70
2022/11/09 06:25:09;;;;;;;;;;;18.80;71.60;;;;;;4495433;31;20095;-70
2022/11/09 06:27:35;;;;;;;;;;;18.80;71.40;;;;;;4495698;31;20294;-70
2022/11/09 06:30:00;;;;;;;;;;;18.80;71.60;;;;;;4495697;31;20111;-75
2022/11/09 06:32:27;;;;;;;;;;;18.80;71.50;;;;;;4467939;31;20299;-71
2022/11/09 06:34:52;;;;;;;;;;;18.80;71.60;;;;;;4495338;31;19993;-72
2022/11/09 06:37:18;;;;;;;;;;;18.80;71.50;;;;;;4480963;31;19984;-74
2022/11/09 06:39:46;;;;;;;;;;;18.80;71.60;;;;;;4495025;31;20314;-72
2022/11/09 06:42:11;;;;;;;;;;;18.80;71.70;;;;;;4494979;31;20013;-72
2022/11/09 06:44:37;;;;;;;;;;;18.80;71.80;;;;;;4495113;31;20116;-76
2022/11/09 06:47:03;;;;;;;;;;;18.80;71.80;;;;;;4494926;31;20381;-75
2022/11/09 06:49:28;;;;;;;;;;;18.80;71.80;;;;;;4480862;31;19961;-77
2022/11/09 06:51:54;;;;;;;;;;;18.80;71.90;;;;;;4494978;31;20491;-76
2022/11/09 06:54:20;;;;;;;;;;;18.80;71.90;;;;;;4494629;31;19970;-77
2022/11/09 06:56:46;;;;;;;;;;;18.80;72.00;;;;;;4495072;31;20322;-78
2022/11/09 06:59:12;;;;;;;;;;;18.70;72.00;;;;;;4495275;31;20009;-74
2022/11/09 07:01:37;;;;;;;;;;;18.80;72.10;;;;;;4495185;31;19961;-74
2022/11/09 07:04:13;;;;;;;;;;;18.80;72.00;;;;;;4494960;31;20092;-74
2022/11/09 07:06:40;;;;;;;;;;;18.80;71.90;;;;;;4494724;31;20394;-74
2022/11/09 07:09:06;;;;;;;;;;;18.70;72.00;;;;;;4494568;31;20430;-74
2022/11/09 07:11:31;;;;;;;;;;;18.70;72.00;;;;;;4480692;31;20028;-74
2022/11/09 07:13:57;;;;;;;;;;;18.70;72.00;;;;;;4494888;31;20280;-74
2022/11/09 07:16:23;;;;;;;;;;;18.70;72.00;;;;;;4494363;31;20026;-75
2022/11/09 07:18:49;;;;;;;;;;;18.70;72.00;;;;;;4480485;31;19969;-74
2022/11/09 07:21:15;;;;;;;;;;;18.70;72.00;;;;;;4494759;31;19985;-75
2022/11/09 07:23:41;;;;;;;;;;;18.70;72.00;;;;;;4494808;31;19974;-74
2022/11/09 07:26:07;;;;;;;;;;;18.70;72.10;;;;;;4494822;31;20065;-75
2022/11/09 07:28:32;;;;;;;;;;;18.70;72.00;;;;;;4494704;31;19972;-74
2022/11/09 07:30:58;;;;;;;;;;;18.70;72.00;;;;;;4494809;31;19974;-75
2022/11/09 07:33:25;;;;;;;;;;;18.70;72.80;;;;;;4494769;31;19969;-75
2022/11/09 07:35:51;;;;;;;;;;;18.70;72.00;;;;;;4480103;31;19989;-74
2022/11/09 07:38:18;;;;;;;;;;;18.70;72.10;;;;;;4494715;31;20455;-75
2022/11/09 07:40:44;;;;;;;;;;;18.60;71.90;;;;;;4494715;31;20031;-75
2022/11/09 07:43:10;;;;;;;;;;;18.60;71.90;;;;;;4480224;31;19984;-75
2022/11/09 07:45:36;;;;;;;;;;;18.70;72.10;;;;;;4494278;31;20567;-75
2022/11/09 07:48:06;;;;;;;;;;;18.60;72.00;;;;;;4494215;31;20097;-75
2022/11/09 07:50:32;;;;;;;;;;;18.60;71.90;;;;;;4480106;31;20014;-74
2022/11/09 07:52:59;;;;;;;;;;;18.60;72.00;;;;;;4494558;31;20360;-74
2022/11/09 07:55:25;;;;;;;;;;;18.60;72.00;;;;;;4493936;31;19977;-75
2022/11/09 07:57:58;;;;;;;;;;;18.60;72.00;;;;;;4494156;31;20391;-75
2022/11/09 08:00:25;;;;;;;;;;;18.60;71.90;;;;;;4494280;31;20456;-74
2022/11/09 08:02:51;;;;;;;;;;;18.60;71.90;;;;;;4494081;31;19985;-74
2022/11/09 08:05:16;;;;;;;;;;;18.60;72.00;;;;;;4479565;31;20314;-74
2022/11/09 08:07:43;;;;;;;;;;;18.60;72.00;;;;;;4494028;31;19973;-74
2022/11/09 08:10:09;;;;;;;;;;;18.60;72.00;;;;;;4493950;31;19970;-73
2022/11/09 08:12:34;;;;;;;;;;;18.70;72.00;;;;;;4494088;31;19962;-74
2022/11/09 08:15:00;;;;;;;;;;;18.60;72.00;;;;;;4493891;31;19981;-76
2022/11/09 08:17:26;;;;;;;;;;;18.60;72.00;;;;;;4494020;31;20016;-74
2022/11/09 08:19:51;;;;;;;;;;;18.60;72.00;;;;;;4479731;31;20001;-73
2022/11/09 08:22:17;;;;;;;;;;;18.60;72.00;;;;;;4493786;31;20043;-74
2022/11/09 08:24:43;;;;;;;;;;;18.60;72.00;;;;;;4479956;31;20256;-74
2022/11/09 08:27:08;;;;;;;;;;;18.60;72.00;;;;;;4493724;31;20080;-74
2022/11/09 08:29:34;;;;;;;;;;;18.70;72.00;;;;;;4492883;31;20376;-74
2022/11/09 08:32:00;;;;;;;;;;;18.60;71.90;;;;;;4493379;31;19977;-73
2022/11/09 08:34:26;;;;;;;;;;;18.60;71.90;;;;;;4493604;31;19970;-74
2022/11/09 08:36:52;;;;;;;;;;;18.70;72.00;;;;;;4493463;31;20013;-74
2022/11/09 08:39:18;;;;;;;;;;;18.60;71.90;;;;;;4493531;31;20338;-74
2022/11/09 08:41:44;;;;;;;;;;;18.60;71.90;;;;;;4479473;31;19981;-74
2022/11/09 08:44:10;;;;;;;;;;;18.70;71.90;;;;;;4493289;31;20398;-74
2022/11/09 08:46:35;;;;;;;;;;;18.70;72.80;;;;;;4493511;31;20307;-74
2022/11/09 08:49:10;;;;;;;;;;;18.70;71.90;;;;;;4587969;31;20025;-67
2022/11/09 08:51:36;;;;;;;;;;;18.70;71.90;;;;;;4577468;31;19980;-66
2022/11/09 08:54:02;;;;;;;;;;;18.70;71.80;;;;;;4577293;31;20046;-66
2022/11/09 08:56:27;;;;;;;;;;;18.70;71.90;;;;;;4578263;31;19980;-66
2022/11/09 08:58:53;;;;;;;;;;;18.70;71.90;;;;;;4546561;31;20020;-66
2022/11/09 09:01:19;;;;;;;;;;;18.70;71.90;;;;;;4547288;31;20364;-66
2022/11/09 09:03:45;;;;;;;;;;;18.70;71.90;;;;;;4573596;31;20024;-66
2022/11/09 09:06:11;;;;;;;;;;;18.70;71.80;;;;;;4542943;31;20023;-69
2022/11/09 09:08:37;;;;;;;;;;;18.70;71.80;;;;;;4557949;31;20048;-69
2022/11/09 09:11:03;;;;;;;;;;;18.70;71.90;;;;;;4562448;31;20008;-69
2022/11/09 09:13:29;;;;;;;;;;;18.70;71.90;;;;;;4555961;31;19980;-69
2022/11/09 09:15:55;;;;;;;;;;;18.70;71.90;;;;;;4571851;31;20026;-68
2022/11/09 09:18:20;;;;;;;;;;;18.70;71.90;;;;;;4557633;31;20012;-69
2022/11/09 09:20:46;;;;;;;;;;;18.70;71.90;;;;;;4542211;31;20039;-69
2022/11/09 09:23:14;;;;;;;;;;;18.70;71.90;;;;;;4547748;31;20012;-69
2022/11/09 09:25:39;;;;;;;;;;;18.70;71.90;;;;;;4532463;31;20049;-69
2022/11/09 09:28:05;;;;;;;;;;;18.70;71.90;;;;;;4559961;31;20134;-68
2022/11/09 09:30:31;;;;;;;;;;;18.70;71.90;;;;;;4577649;31;20110;-69
2022/11/09 09:32:59;;;;;;;;;;;18.70;72.00;;;;;;4545846;31;20027;-68
2022/11/09 09:35:24;;;;;;;;;;;18.70;71.90;;;;;;4577623;31;20023;-69
2022/11/09 09:37:50;;;;;;;;;;;18.70;71.90;;;;;;4561232;31;20081;-69
2022/11/09 09:40:22;;;;;;;;;;;18.70;72.80;;;;;;4577398;31;20015;-69
2022/11/09 09:42:49;;;;;;;;;;;18.60;72.00;;;;;;4561986;31;20041;-68
2022/11/09 09:45:18;;;;;;;;;;;18.70;72.00;;;;;;4576737;31;20012;-69
2022/11/09 09:47:44;;;;;;;;;;;18.70;72.10;;;;;;4548882;31;20024;-68
2022/11/09 09:50:12;;;;;;;;;;;18.70;72.10;;;;;;4560812;31;20060;-68
2022/11/09 09:52:44;;;;;;;;;;;18.60;72.10;;;;;;4577361;31;20024;-69
2022/11/09 09:55:10;;;;;;;;;;;18.70;72.20;;;;;;4560655;31;20028;-69
2022/11/09 09:57:36;;;;;;;;;;;18.70;72.20;;;;;;4562703;31;20035;-69
2022/11/09 10:00:05;;;;;;;;;;;18.60;72.20;;;;;;4567711;31;19994;-69
2022/11/09 10:02:33;;;;;;;;;;;18.60;72.80;;;;;;4549171;31;20027;-69
2022/11/09 10:05:00;;;;;;;;;;;18.70;72.30;;;;;;4545921;31;19995;-69
2022/11/09 10:07:52;;;;;;;;;;;18.60;72.30;;;;;;4564263;31;20028;-69
2022/11/09 10:10:17;;;;;;;;;;;18.60;72.30;;;;;;4566152;31;20036;-69
2022/11/09 10:12:55;;;;;;;;;;;18.60;72.30;;;;;;4548259;31;20034;-69
2022/11/09 10:15:30;;;;;;;;;;;18.60;72.40;;;;;;4542820;31;20040;-68
2022/11/09 10:18:04;;;;;;;;;;;18.60;72.40;;;;;;4565798;31;19984;-69
2022/11/09 10:20:38;;;;;;;;;;;18.60;72.40;;;;;;4564390;31;20024;-68
2022/11/09 10:23:30;;;;;;;;;;;18.60;72.40;;;;;;4565708;31;20043;-69
2022/11/09 10:26:04;;;;;;;;;;;18.60;72.50;;;;;;4550719;31;19972;-68
2022/11/09 10:28:32;;;;;;;;;;;18.60;72.50;;;;;;4538933;31;20031;-68
2022/11/09 10:30:58;;;;;;;;;;;18.60;72.60;;;;;;4551274;31;20072;-69
2022/11/09 10:33:25;;;;;;;;;;;18.60;72.50;;;;;;4563907;31;20066;-68
2022/11/09 10:35:58;;;;;;;;;;;18.60;72.50;;;;;;4551347;31;20154;-69
2022/11/09 10:38:26;;;;;;;;;;;18.60;72.60;;;;;;4564336;31;20178;-69
2022/11/09 10:41:12;;;;;;;;;;;18.60;72.60;;;;;;4550694;31;20412;-69
2022/11/09 10:43:38;;;;;;;;;;;18.60;72.50;;;;;;4565012;31;20122;-69
2022/11/09 10:46:05;;;;;;;;;;;18.60;72.50;;;;;;4540305;31;21358;-69
2022/11/09 10:48:33;;;;;;;;;;;18.60;72.50;;;;;;4563229;31;20050;-69
2022/11/09 10:50:58;;;;;;;;;;;18.60;72.50;;;;;;4549391;31;20035;-69
2022/11/09 10:53:27;;;;;;;;;;;18.60;72.50;;;;;;4550813;31;20028;-69
2022/11/09 10:55:53;;;;;;;;;;;18.60;72.50;;;;;;4564750;31;20009;-69
2022/11/09 10:58:24;;;;;;;;;;;18.60;72.50;;;;;;4549731;31;20038;-69
2022/11/09 11:00:54;;;;;;;;;;;18.60;72.60;;;;;;4551021;31;19992;-69
2022/11/09 11:03:23;;;;;;;;;;;18.60;72.50;;;;;;4563532;31;20028;-69
2022/11/09 11:05:57;;;;;;;;;;;18.60;72.50;;;;;;4565158;31;20027;-69
2022/11/09 11:08:27;;;;;;;;;;;18.60;72.50;;;;;;4564076;31;20129;-69
2022/11/09 11:11:05;;;;;;;;;;;18.60;72.50;;;;;;4549163;31;20038;-69
2022/11/09 11:13:31;;;;;;;;;;;18.60;72.50;;;;;;4565239;31;19977;-69
2022/11/09 11:15:57;;;;;;;;;;;18.60;72.50;;;;;;4548619;31;20031;-68
2022/11/09 11:18:24;;;;;;;;;;;18.60;72.50;;;;;;4550491;31;20166;-69
2022/11/09 11:21:10;;;;;;;;;;;18.60;72.50;;;;;;4532631;31;20040;-68
2022/11/09 11:23:35;;;;;;;;;;;18.60;72.50;;;;;;4555139;31;20035;-69
2022/11/09 11:26:24;;;;;;;;;;;18.60;72.50;;;;;;4564550;31;20012;-69
2022/11/09 11:28:56;;;;;;;;;;;18.60;72.50;;;;;;4563447;31;20034;-68
2022/11/09 11:31:22;;;;;;;;;;;18.60;72.50;;;;;;4564990;31;20040;-69
2022/11/09 11:33:48;;;;;;;;;;;18.60;72.50;;;;;;4548289;31;20090;-69
2022/11/09 11:36:31;;;;;;;;;;;18.60;72.50;;;;;;4564805;31;20027;-69
2022/11/09 11:39:10;;;;;;;;;;;18.60;72.50;;;;;;4533960;31;19992;-69
2022/11/09 11:41:39;;;;;;;;;;;18.60;72.60;;;;;;4559935;31;20120;-69
2022/11/09 11:44:05;;;;;;;;;;;18.60;72.60;;;;;;4564636;31;20451;-69
2022/11/09 11:46:47;;;;;;;;;;;18.60;72.50;;;;;;4562576;31;20516;-69
2022/11/09 11:49:16;;;;;;;;;;;18.60;72.60;;;;;;4563647;31;20036;-68
2022/11/09 11:51:41;;;;;;;;;;;18.60;72.50;;;;;;4562954;31;19972;-68
2022/11/09 11:54:15;;;;;;;;;;;18.60;72.50;;;;;;4547828;31;20035;-68
2022/11/09 11:56:49;;;;;;;;;;;18.50;72.50;;;;;;4549121;31;20616;-69
2022/11/09 11:59:15;;;;;;;;;;;18.60;72.50;;;;;;4547082;31;20380;-69
2022/11/09 12:01:59;;;;;;;;;;;18.50;72.50;;;;;;4548988;31;20465;-69
2022/11/09 12:04:28;;;;;;;;;;;18.50;72.50;;;;;;4553072;31;20042;-69
2022/11/09 12:07:00;;;;;;;;;;;18.50;72.50;;;;;;4547714;31;20031;-68
2022/11/09 12:09:31;;;;;;;;;;;18.50;72.50;;;;;;4548965;31;20032;-69
2022/11/09 12:12:00;;;;;;;;;;;18.50;72.50;;;;;;4561456;31;20034;-69
2022/11/09 12:14:38;;;;;;;;;;;18.50;72.40;;;;;;4563449;31;20154;-69
2022/11/09 12:17:05;;;;;;;;;;;18.50;72.50;;;;;;4561696;31;20031;-68
2022/11/09 12:19:31;;;;;;;;;;;18.50;72.40;;;;;;4548115;31;20455;-69
2022/11/09 12:22:00;;;;;;;;;;;18.50;72.50;;;;;;4548335;31;19969;-69
2022/11/09 12:24:42;;;;;;;;;;;18.50;72.50;;;;;;4546733;31;20086;-69
2022/11/09 12:27:11;;;;;;;;;;;18.50;72.50;;;;;;4548756;31;20027;-69
2022/11/09 12:29:44;;;;;;;;;;;18.50;72.50;;;;;;4561332;31;20488;-69
2022/11/09 12:32:17;;;;;;;;;;;18.50;72.50;;;;;;4548516;31;20092;-69
2022/11/09 12:34:45;;;;;;;;;;;18.50;72.50;;;;;;4548274;31;20043;-69
2022/11/09 12:37:17;;;;;;;;;;;18.50;72.50;;;;;;4546861;31;20023;-69
2022/11/09 12:39:43;;;;;;;;;;;18.50;72.50;;;;;;4547716;31;20039;-71
2022/11/09 12:42:12;;;;;;;;;;;18.50;72.50;;;;;;4544582;31;20027;-69
2022/11/09 12:44:47;;;;;;;;;;;18.50;72.50;;;;;;4543260;31;20024;-69
2022/11/09 12:47:15;;;;;;;;;;;18.50;72.40;;;;;;4547103;31;20027;-68
2022/11/09 12:49:43;;;;;;;;;;;18.50;72.40;;;;;;4561458;31;20038;-69
2022/11/09 12:52:21;;;;;;;;;;;18.50;72.40;;;;;;4561249;31;19976;-71
2022/11/09 12:54:48;;;;;;;;;;;18.50;72.40;;;;;;4544059;31;20036;-68
2022/11/09 12:57:19;;;;;;;;;;;18.50;72.50;;;;;;4547542;31;20024;-67
2022/11/09 12:59:48;;;;;;;;;;;18.50;72.50;;;;;;4559061;31;20035;-66
2022/11/09 13:02:23;;;;;;;;;;;18.50;72.70;;;;;;4544618;31;20039;-67
2022/11/09 13:04:58;;;;;;;;;;;18.50;72.80;;;;;;4550056;31;19981;-68
2022/11/09 13:07:36;;;;;;;;;;;18.50;72.80;;;;;;4536936;31;20615;-67
2022/11/09 13:10:02;;;;;;;;;;;18.60;72.70;;;;;;4550512;31;20105;-67
2022/11/09 13:12:28;;;;;;;;;;;18.60;72.30;;;;;;4541559;31;20158;-67
2022/11/09 13:14:54;;;;;;;;;;;18.70;72.10;;;;;;4535927;31;20072;-67
2022/11/09 13:17:20;;;;;;;;;;;18.80;71.90;;;;;;4544827;31;20329;-67
2022/11/09 13:19:47;;;;;;;;;;;18.90;71.80;;;;;;4543611;31;20907;-67
2022/11/09 13:22:13;;;;;;;;;;;19.00;71.50;;;;;;4552820;31;19994;-68
2022/11/09 13:24:58;;;;;;;;;;;19.10;71.30;;;;;;4548791;31;20052;-67
2022/11/09 13:27:43;;;;;;;;;;;19.20;71.10;;;;;;4545280;31;20032;-68
2022/11/09 13:30:24;;;;;;;;;;;19.40;70.90;;;;;;4545736;31;20016;-66
2022/11/09 13:33:05;;;;;;;;;;;19.50;70.60;;;;;;4548317;31;20031;-69
2022/11/09 13:35:40;;;;;;;;;;;19.70;70.40;;;;;;4551989;31;20042;-69
2022/11/09 13:38:22;;;;;;;;;;;19.80;70.10;;;;;;4551581;31;20036;-69
2022/11/09 13:40:55;;;;;;;;;;;19.90;70.00;;;;;;4544259;31;20969;-68
2022/11/09 13:43:31;;;;;;;;;;;20.00;69.70;;;;;;4543919;31;19984;-68
2022/11/09 13:45:58;;;;;;;;;;;20.00;69.50;;;;;;4543636;31;20215;-68
2022/11/09 13:48:28;;;;;;;;;;;20.10;69.40;;;;;;4559621;31;20031;-68
2022/11/09 13:50:55;;;;;;;;;;;20.20;69.20;;;;;;4542493;31;20102;-68
2022/11/09 13:53:28;;;;;;;;;;;20.20;69.10;;;;;;4560785;31;20540;-69
2022/11/09 13:55:55;;;;;;;;;;;20.30;69.00;;;;;;4557297;31;20193;-69
2022/11/09 13:58:27;;;;;;;;;;;20.30;68.80;;;;;;4558198;31;20034;-69
2022/11/09 14:00:53;;;;;;;;;;;20.40;68.80;;;;;;4558559;31;20191;-69
2022/11/09 14:03:20;;;;;;;;;;;20.40;68.60;;;;;;4545039;31;20052;-68
2022/11/09 14:05:51;;;;;;;;;;;20.50;68.60;;;;;;4556329;31;20404;-69
2022/11/09 14:08:24;;;;;;;;;;;20.50;68.50;;;;;;4555800;31;20024;-68
2022/11/09 14:11:08;;;;;;;;;;;20.60;68.50;;;;;;4555958;31;20039;-74
2022/11/09 14:14:09;;;;;;;;;;;20.60;68.30;;;;;;4546748;31;19972;-69
2022/11/09 14:16:35;;;;;;;;;;;20.60;68.30;;;;;;4477184;32;20033;-67
2022/11/09 14:19:33;;;;;;;;;;;20.60;68.20;;;;;;4542673;31;20016;-67
2022/11/09 14:21:59;;;;;;;;;;;20.70;68.20;;;;;;4510694;31;19980;-68